Time;durP1;ratioP1;P1;durP2;ratioP2;P2;SDS_P1;SDS_P2;PMS_P1;PMS_P2;Temp;Humidity;BMP_temperature;BMP_pressure;BME280_temperature;BME280_humidity;BME280_pressure;Samples;Min_cycle;Max_cycle;Signal;HPM_P1;HPM_P2
2023/12/22 00:01:47;;;;;;;26.55;4.60;;;10.00;1.00;;;;;;6232257;28;20052;-87
2023/12/22 00:04:48;;;;;;;29.20;5.00;;;10.00;1.00;;;;;;6208430;28;20457;-86
2023/12/22 00:07:50;;;;;;;23.05;4.30;;;10.00;1.00;;;;;;6249118;28;20136;-86
2023/12/22 00:10:52;;;;;;;28.45;4.55;;;9.90;1.00;;;;;;6225920;28;20053;-87
2023/12/22 00:13:54;;;;;;;22.83;4.32;;;9.90;1.00;;;;;;6240275;28;20209;-86
2023/12/22 00:16:56;;;;;;;20.70;4.63;;;9.80;1.00;;;;;;6207644;28;20054;-87
2023/12/22 00:19:59;;;;;;;26.23;5.00;;;9.80;1.00;;;;;;6230862;28;20084;-86
2023/12/22 00:23:01;;;;;;;29.13;4.20;;;9.80;1.00;;;;;;6243575;28;20045;-85
2023/12/22 00:26:02;;;;;;;21.13;4.97;;;9.80;1.00;;;;;;6230759;28;20096;-85
2023/12/22 00:29:04;;;;;;;25.20;4.60;;;9.80;1.00;;;;;;6231729;28;20394;-85
2023/12/22 00:32:09;;;;;;;25.75;4.75;;;9.80;1.00;;;;;;6213057;28;20045;-86
2023/12/22 00:35:11;;;;;;;24.55;3.97;;;9.70;1.00;;;;;;6249270;28;20053;-87
2023/12/22 00:38:12;;;;;;;17.42;3.95;;;9.70;1.70;;;;;;6209868;28;20053;-87
2023/12/22 00:41:14;;;;;;;26.55;4.72;;;9.70;1.00;;;;;;6231235;28;20054;-88
2023/12/22 00:44:16;;;;;;;23.63;3.80;;;9.80;1.00;;;;;;6222154;28;20049;-87
2023/12/22 00:47:17;;;;;;;26.90;4.47;;;9.90;1.00;;;;;;6209277;28;20050;-87
2023/12/22 00:50:19;;;;;;;21.70;3.75;;;10.00;1.00;;;;;;6249245;28;20052;-88
2023/12/22 00:53:21;;;;;;;24.20;4.10;;;10.00;1.10;;;;;;6206893;28;20054;-87
2023/12/22 00:56:22;;;;;;;20.05;3.38;;;9.90;2.00;;;;;;6230955;28;20056;-86
2023/12/22 00:59:24;;;;;;;20.13;4.40;;;10.00;2.60;;;;;;6214771;28;20078;-86
2023/12/22 01:02:26;;;;;;;22.05;3.47;;;10.10;3.90;;;;;;6231132;28;20057;-87
2023/12/22 01:05:27;;;;;;;21.05;4.13;;;10.10;4.30;;;;;;6208252;28;20477;-89
2023/12/22 01:08:29;;;;;;;21.58;3.45;;;10.10;5.10;;;;;;6231276;28;20056;-88
2023/12/22 01:11:31;;;;;;;20.05;3.50;;;10.10;7.10;;;;;;6248728;28;20056;-88
2023/12/22 01:14:32;;;;;;;19.38;3.10;;;10.10;9.40;;;;;;6203215;28;20054;-85
2023/12/22 01:17:34;;;;;;;18.50;3.33;;;10.20;10.40;;;;;;6228233;28;20057;-87
2023/12/22 01:20:37;;;;;;;18.35;3.03;;;10.30;11.70;;;;;;6223820;28;20054;-87
2023/12/22 01:23:38;;;;;;;13.70;2.67;;;10.20;13.40;;;;;;6229124;28;20049;-87
2023/12/22 01:26:40;;;;;;;13.55;2.83;;;10.20;17.40;;;;;;6200389;28;20058;-88
2023/12/22 01:29:42;;;;;;;15.07;3.10;;;10.20;22.50;;;;;;6236762;28;20064;-86
2023/12/22 01:32:43;;;;;;;14.68;2.60;;;10.30;29.60;;;;;;6206975;28;20058;-86
2023/12/22 01:35:45;;;;;;;13.00;2.38;;;10.40;34.00;;;;;;6215772;28;20601;-88
2023/12/22 01:38:47;;;;;;;12.07;2.30;;;10.50;39.40;;;;;;6206477;28;20054;-88
2023/12/22 01:41:49;;;;;;;10.38;2.08;;;10.50;42.50;;;;;;6241721;28;20798;-88
2023/12/22 01:44:51;;;;;;;8.80;1.58;;;10.50;46.50;;;;;;6207067;28;20414;-88
2023/12/22 01:47:54;;;;;;;10.70;1.80;;;10.60;59.40;;;;;;6224596;28;20413;-86
2023/12/22 01:50:55;;;;;;;7.13;1.80;;;10.60;66.30;;;;;;6223897;28;20069;-88
2023/12/22 01:53:57;;;;;;;7.60;1.75;;;10.70;69.70;;;;;;6208965;28;20050;-85
2023/12/22 01:56:59;;;;;;;7.63;1.10;;;10.70;76.30;;;;;;6221151;28;20661;-89
2023/12/22 02:00:00;;;;;;;7.00;1.35;;;10.70;80.20;;;;;;6204932;28;20065;-88
2023/12/22 02:03:02;;;;;;;7.93;1.30;;;10.70;83.50;;;;;;6218768;28;20053;-87
2023/12/22 02:06:04;;;;;;;6.88;1.60;;;10.70;84.30;;;;;;6223732;28;20050;-87
2023/12/22 02:09:05;;;;;;;7.35;1.38;;;10.70;83.40;;;;;;6203995;28;20088;-86
2023/12/22 02:12:07;;;;;;;9.35;1.55;;;10.70;83.80;;;;;;6222917;28;20546;-86
2023/12/22 02:15:09;;;;;;;6.22;1.25;;;10.70;84.80;;;;;;6200974;28;20053;-88
2023/12/22 02:18:11;;;;;;;8.50;1.42;;;10.50;87.10;;;;;;6210456;28;20049;-86
2023/12/22 02:21:12;;;;;;;8.82;1.48;;;10.60;89.50;;;;;;6223493;28;20085;-87
2023/12/22 02:24:14;;;;;;;9.43;1.58;;;10.50;91.70;;;;;;6221951;28;20046;-86
2023/12/22 02:27:16;;;;;;;8.05;1.45;;;10.40;95.70;;;;;;6215248;28;20061;-85
2023/12/22 02:30:20;;;;;;;9.82;2.20;;;10.30;99.40;;;;;;6200876;28;20521;-86
2023/12/22 02:33:22;;;;;;;7.78;1.60;;;10.20;99.90;;;;;;6227774;28;20060;-86
2023/12/22 02:36:24;;;;;;;8.32;1.73;;;10.10;99.90;;;;;;6220830;28;20056;-86
2023/12/22 02:39:26;;;;;;;11.15;2.22;;;10.10;99.90;;;;;;6244471;28;20057;-86
2023/12/22 02:42:30;;;;;;;8.52;1.77;;;10.00;99.90;;;;;;6204094;28;20056;-86
2023/12/22 02:45:32;;;;;;;12.20;2.17;;;9.80;99.90;;;;;;6243158;28;20072;-86
2023/12/22 02:48:33;;;;;;;9.32;1.90;;;9.80;99.90;;;;;;6226402;28;20136;-85
2023/12/22 02:51:35;;;;;;;12.20;2.03;;;9.70;99.90;;;;;;6244581;28;20136;-87
2023/12/22 02:54:39;;;;;;;9.93;2.28;;;9.60;99.90;;;;;;6202191;28;20064;-86
2023/12/22 02:57:41;;;;;;;13.57;2.17;;;9.50;99.90;;;;;;6209519;28;20065;-85
2023/12/22 03:00:43;;;;;;;13.05;2.40;;;9.50;99.90;;;;;;6197891;28;20054;-86
2023/12/22 03:03:45;;;;;;;13.05;2.28;;;9.50;99.90;;;;;;6202869;28;20065;-85
2023/12/22 03:06:46;;;;;;;15.10;2.25;;;9.50;99.90;;;;;;6224312;28;20541;-85
2023/12/22 03:09:48;;;;;;;14.45;2.33;;;9.50;99.90;;;;;;6226759;28;20069;-84
2023/12/22 03:12:50;;;;;;;13.00;2.20;;;9.40;99.90;;;;;;6243220;28;20068;-86
2023/12/22 03:15:51;;;;;;;12.70;2.20;;;9.40;99.90;;;;;;6225125;28;20046;-86
2023/12/22 03:18:53;;;;;;;12.18;2.10;;;9.40;99.90;;;;;;6228050;28;20091;-88
2023/12/22 03:21:56;;;;;;;12.50;2.30;;;9.40;99.90;;;;;;6202778;28;20159;-86
2023/12/22 03:24:58;;;;;;;8.45;2.00;;;9.40;99.90;;;;;;6223636;28;20050;-87
2023/12/22 03:27:59;;;;;;;12.02;2.28;;;9.50;99.90;;;;;;6228088;28;20806;-88
2023/12/22 03:31:02;;;;;;;13.13;2.38;;;9.40;99.90;;;;;;6212482;28;20096;-86
2023/12/22 03:34:04;;;;;;;12.80;1.92;;;9.50;99.90;;;;;;6229861;28;20041;-86
2023/12/22 03:37:05;;;;;;;8.27;1.70;;;9.50;99.90;;;;;;6249226;28;20061;-86
2023/12/22 03:40:07;;;;;;;11.15;1.92;;;9.40;99.90;;;;;;6224823;28;20058;-87
2023/12/22 03:43:09;;;;;;;12.77;2.28;;;9.40;99.90;;;;;;6227132;28;20083;-86
2023/12/22 03:46:10;;;;;;;12.70;2.42;;;9.40;99.90;;;;;;6231143;28;20195;-86
2023/12/22 03:49:12;;;;;;;9.73;2.03;;;9.40;99.90;;;;;;6199709;28;20065;-85
2023/12/22 03:52:14;;;;;;;8.63;1.75;;;9.50;99.90;;;;;;6239085;28;20104;-85
2023/12/22 03:55:17;;;;;;;7.10;1.80;;;9.50;99.90;;;;;;6247835;28;20076;-87
2023/12/22 03:58:19;;;;;;;9.50;1.85;;;9.60;99.90;;;;;;6224450;28;20060;-86
2023/12/22 04:01:21;;;;;;;5.25;1.30;;;9.60;99.90;;;;;;6238088;28;20057;-84
2023/12/22 04:04:23;;;;;;;9.10;1.80;;;9.60;99.90;;;;;;6222852;28;20049;-85
2023/12/22 04:07:24;;;;;;;7.10;1.63;;;9.70;99.90;;;;;;6203662;28;20192;-86
2023/12/22 04:10:26;;;;;;;8.85;1.30;;;9.80;99.90;;;;;;6227725;28;20424;-86
2023/12/22 04:13:28;;;;;;;5.13;1.40;;;9.80;99.90;;;;;;6201625;28;20061;-87
2023/12/22 04:16:30;;;;;;;5.10;1.35;;;10.00;99.90;;;;;;6228151;28;20089;-86
2023/12/22 04:19:31;;;;;;;5.90;1.10;;;10.00;99.90;;;;;;6246760;28;20516;-87
2023/12/22 04:22:33;;;;;;;3.63;1.30;;;10.00;99.90;;;;;;6224429;28;20080;-85
2023/12/22 04:25:35;;;;;;;4.57;1.20;;;10.20;99.90;;;;;;6229107;28;20049;-84
2023/12/22 04:28:37;;;;;;;4.95;1.15;;;10.20;99.90;;;;;;6228134;28;20414;-85
2023/12/22 04:31:39;;;;;;;5.82;1.20;;;10.30;99.90;;;;;;6206740;28;20053;-85
2023/12/22 04:34:41;;;;;;;6.90;1.38;;;10.30;99.90;;;;;;6221828;28;20402;-85
2023/12/22 04:37:42;;;;;;;5.63;1.20;;;10.40;99.90;;;;;;6247296;28;20060;-85
2023/12/22 04:40:44;;;;;;;5.50;1.10;;;10.30;99.90;;;;;;6207618;28;20054;-86
2023/12/22 04:43:46;;;;;;;6.03;1.20;;;10.40;99.90;;;;;;6232168;22;20501;-87
2023/12/22 04:46:47;;;;;;;4.05;1.30;;;10.40;99.90;;;;;;6282906;28;20052;-85
2023/12/22 04:49:49;;;;;;;4.68;1.00;;;10.50;99.90;;;;;;6254008;28;20055;-86
2023/12/22 04:52:51;;;;;;;5.80;1.48;;;10.50;99.90;;;;;;6253768;28;20160;-86
2023/12/22 04:55:53;;;;;;;3.60;1.10;;;10.60;99.90;;;;;;6271590;28;20080;-86
2023/12/22 04:58:54;;;;;;;3.13;0.98;;;10.60;99.90;;;;;;6252166;28;20528;-86
2023/12/22 05:01:56;;;;;;;4.68;1.30;;;10.70;99.90;;;;;;6275131;28;20052;-87
2023/12/22 05:04:58;;;;;;;5.18;1.00;;;10.70;99.90;;;;;;6269979;28;20257;-86
2023/12/22 05:08:00;;;;;;;3.30;1.00;;;10.70;99.90;;;;;;6257167;28;20045;-87
2023/12/22 05:11:03;;;;;;;4.78;1.00;;;10.70;99.90;;;;;;6257049;28;20518;-85
2023/12/22 05:14:04;;;;;;;2.95;0.80;;;10.80;99.90;;;;;;6271445;28;20059;-86
2023/12/22 05:17:06;;;;;;;5.25;0.93;;;10.80;99.90;;;;;;6256994;28;20060;-85
2023/12/22 05:20:09;;;;;;;4.78;0.98;;;10.80;99.90;;;;;;6257086;28;20393;-85
2023/12/22 05:23:11;;;;;;;3.42;0.90;;;10.80;99.90;;;;;;6274411;28;20049;-84
2023/12/22 05:26:13;;;;;;;4.40;0.80;;;10.80;99.90;;;;;;6256156;28;20052;-86
2023/12/22 05:29:15;;;;;;;4.70;1.20;;;10.80;99.90;;;;;;6270504;28;20048;-85
2023/12/22 05:32:16;;;;;;;4.45;1.30;;;10.70;99.90;;;;;;6256469;28;20052;-84
2023/12/22 05:35:18;;;;;;;5.65;0.85;;;10.70;99.90;;;;;;6255894;28;20045;-85
2023/12/22 05:38:20;;;;;;;5.35;0.93;;;10.70;99.90;;;;;;6254967;28;20051;-85
2023/12/22 05:41:21;;;;;;;5.30;0.80;;;10.80;99.90;;;;;;6271622;28;20056;-84
2023/12/22 05:44:24;;;;;;;3.33;0.80;;;10.80;99.90;;;;;;6271734;28;20049;-87
2023/12/22 05:47:25;;;;;;;5.35;0.95;;;10.90;99.90;;;;;;6273849;28;20409;-87
2023/12/22 05:50:27;;;;;;;3.05;0.70;;;10.90;99.90;;;;;;6272340;28;20044;-86
2023/12/22 05:53:29;;;;;;;3.55;0.70;;;10.80;99.90;;;;;;6252456;28;20092;-86
2023/12/22 05:56:30;;;;;;;4.10;0.82;;;10.60;99.90;;;;;;6251554;28;20049;-86
2023/12/22 05:59:32;;;;;;;3.50;0.88;;;10.40;99.90;;;;;;6250241;28;20056;-85
2023/12/22 06:02:34;;;;;;;3.70;0.85;;;10.30;99.90;;;;;;6255164;28;20084;-82
2023/12/22 06:05:35;;;;;;;2.97;0.80;;;10.30;99.90;;;;;;6270858;28;20468;-86
2023/12/22 06:08:37;;;;;;;3.28;0.82;;;10.20;99.90;;;;;;6272688;28;20060;-85
2023/12/22 06:11:39;;;;;;;3.67;0.80;;;10.20;99.90;;;;;;6255997;28;20079;-86
2023/12/22 06:14:41;;;;;;;3.50;0.90;;;10.20;99.90;;;;;;6271544;28;20072;-87
2023/12/22 06:17:43;;;;;;;4.78;1.08;;;10.20;99.90;;;;;;6272780;28;20048;-85
2023/12/22 06:20:44;;;;;;;4.75;1.20;;;10.20;99.90;;;;;;6254916;28;20158;-87
2023/12/22 06:23:46;;;;;;;3.70;1.00;;;10.20;99.90;;;;;;6285397;28;20086;-87
2023/12/22 06:26:48;;;;;;;4.20;1.00;;;10.20;99.90;;;;;;6274269;28;20060;-85
2023/12/22 06:29:49;;;;;;;2.38;0.90;;;10.10;99.90;;;;;;6272033;28;20049;-87
2023/12/22 06:32:51;;;;;;;4.15;1.00;;;10.10;99.90;;;;;;6255934;28;20199;-87
2023/12/22 06:35:53;;;;;;;5.13;1.00;;;10.00;99.90;;;;;;6276689;28;20057;-84
2023/12/22 06:38:55;;;;;;;4.60;1.33;;;10.10;99.90;;;;;;6262459;28;20048;-87
2023/12/22 06:41:56;;;;;;;4.07;0.93;;;10.10;99.90;;;;;;6277223;28;20061;-87
2023/12/22 06:44:58;;;;;;;5.28;1.00;;;10.10;99.90;;;;;;6256877;28;20061;-83
2023/12/22 06:48:00;;;;;;;5.35;0.98;;;10.20;99.90;;;;;;6287100;28;20508;-86
2023/12/22 06:51:02;;;;;;;4.35;1.00;;;10.20;99.90;;;;;;6282015;28;20052;-86
2023/12/22 06:54:07;;;;;;;3.50;1.00;;;10.20;99.90;;;;;;6260689;28;20056;-86
2023/12/22 06:57:12;;;;;;;2.80;0.80;;;10.20;99.90;;;;;;6255553;28;20049;-86
2023/12/22 07:00:14;;;;;;;2.65;0.90;;;10.30;99.90;;;;;;6279561;28;20060;-87
2023/12/22 07:03:17;;;;;;;4.53;0.98;;;10.30;99.90;;;;;;6262173;28;20052;-88
2023/12/22 07:06:19;;;;;;;4.63;0.70;;;10.30;99.90;;;;;;6287930;28;20491;-88
2023/12/22 07:09:21;;;;;;;4.45;0.80;;;10.40;99.90;;;;;;6260196;28;20057;-88
2023/12/22 07:12:22;;;;;;;4.55;0.80;;;10.50;99.90;;;;;;6259700;28;20040;-88
2023/12/22 07:15:24;;;;;;;3.35;0.70;;;10.50;99.90;;;;;;6256952;28;20515;-85
2023/12/22 07:18:30;;;;;;;2.15;0.52;;;10.50;99.90;;;;;;6260140;28;20052;-87
2023/12/22 07:21:31;;;;;;;4.50;0.80;;;10.50;99.90;;;;;;6277304;28;20103;-87
2023/12/22 07:24:33;;;;;;;3.95;0.80;;;10.50;99.90;;;;;;6277695;28;20041;-85
2023/12/22 07:27:35;;;;;;;2.85;0.80;;;10.50;99.90;;;;;;6259227;28;20057;-87
2023/12/22 07:30:37;;;;;;;4.32;0.90;;;10.50;99.90;;;;;;6258008;28;20416;-86
2023/12/22 07:33:39;;;;;;;2.40;0.70;;;10.50;99.90;;;;;;6251039;28;20049;-86
2023/12/22 07:36:40;;;;;;;3.90;0.75;;;10.60;99.90;;;;;;6267095;28;20050;-86
2023/12/22 07:39:51;;;;;;;3.42;0.70;;;10.60;99.90;;;;;;6252080;28;20052;-87
2023/12/22 07:42:54;;;;;;;2.22;0.80;;;10.70;99.90;;;;;;6258462;28;20520;-87
2023/12/22 07:45:56;;;;;;;2.75;0.80;;;10.70;99.90;;;;;;6259411;28;20053;-86
2023/12/22 07:48:57;;;;;;;1.65;0.57;;;10.70;99.90;;;;;;6259480;28;20501;-87
2023/12/22 07:51:59;;;;;;;3.70;0.70;;;10.70;99.90;;;;;;6258644;28;20072;-87
2023/12/22 07:55:03;;;;;;;3.28;0.70;;;10.70;99.90;;;;;;6259930;28;20052;-85
2023/12/22 07:58:05;;;;;;;3.88;0.80;;;10.70;99.90;;;;;;6258602;28;20041;-87
2023/12/22 08:01:07;;;;;;;4.78;0.75;;;10.70;99.90;;;;;;6259423;28;20048;-85
2023/12/22 08:04:09;;;;;;;3.33;0.77;;;10.70;99.90;;;;;;6258876;28;20622;-86
2023/12/22 08:07:11;;;;;;;2.97;0.70;;;10.70;99.90;;;;;;6274497;28;20057;-86
2023/12/22 08:10:12;;;;;;;2.45;0.68;;;10.70;99.90;;;;;;6265396;28;20059;-86
2023/12/22 08:13:14;;;;;;;1.83;0.60;;;10.70;99.90;;;;;;6255922;28;20510;-87
2023/12/22 08:16:16;;;;;;;1.80;0.50;;;10.80;99.90;;;;;;6259821;28;20060;-87
2023/12/22 08:19:17;;;;;;;1.58;0.50;;;10.80;99.90;;;;;;6258561;28;20049;-86
2023/12/22 08:22:19;;;;;;;2.40;0.63;;;10.80;99.90;;;;;;6277277;28;20064;-86
2023/12/22 08:25:24;;;;;;;4.10;0.95;;;10.80;99.90;;;;;;6259174;28;20167;-85
2023/12/22 08:28:27;;;;;;;2.83;0.63;;;10.90;99.90;;;;;;6257430;28;20175;-87
2023/12/22 08:31:28;;;;;;;1.50;0.50;;;10.90;99.90;;;;;;6276521;28;20049;-87
2023/12/22 08:34:30;;;;;;;2.83;0.60;;;10.90;99.90;;;;;;6258548;28;20063;-84
2023/12/22 08:37:32;;;;;;;3.13;0.80;;;10.90;99.90;;;;;;6256430;28;20432;-85
2023/12/22 08:40:35;;;;;;;4.05;0.82;;;11.00;99.90;;;;;;6258512;28;20519;-88
2023/12/22 08:43:39;;;;;;;3.30;0.93;;;11.10;99.90;;;;;;6256113;28;20057;-84
2023/12/22 08:46:41;;;;;;;3.33;0.80;;;11.10;99.90;;;;;;6276780;28;20060;-87
2023/12/22 08:49:43;;;;;;;4.95;0.70;;;11.10;99.90;;;;;;6276412;28;20044;-87
2023/12/22 08:52:45;;;;;;;3.50;0.80;;;11.20;99.90;;;;;;6258738;28;20056;-87
2023/12/22 08:55:46;;;;;;;3.35;0.77;;;11.20;99.90;;;;;;6275687;28;20060;-84
2023/12/22 08:58:51;;;;;;;4.65;0.75;;;11.20;99.90;;;;;;6278085;28;20044;-82
2023/12/22 09:01:53;;;;;;;4.28;0.70;;;11.30;99.90;;;;;;6274732;28;20048;-83
2023/12/22 09:04:55;;;;;;;2.30;0.70;;;11.40;99.90;;;;;;6270380;28;20049;-82
2023/12/22 09:07:56;;;;;;;2.95;0.60;;;11.40;99.90;;;;;;6279111;28;20052;-83
2023/12/22 09:10:58;;;;;;;2.63;0.60;;;11.50;99.90;;;;;;6258737;28;20041;-83
2023/12/22 09:14:00;;;;;;;3.60;0.90;;;11.50;99.90;;;;;;6268926;28;20052;-82
2023/12/22 09:17:02;;;;;;;2.97;0.90;;;11.50;99.90;;;;;;6270423;28;20052;-83
2023/12/22 09:20:03;;;;;;;3.58;0.70;;;11.50;99.40;;;;;;6284849;28;20102;-82
2023/12/22 09:23:07;;;;;;;2.58;0.70;;;11.50;98.20;;;;;;6270441;28;20057;-83
2023/12/22 09:26:09;;;;;;;3.38;0.82;;;11.60;98.50;;;;;;6272163;28;20076;-81
2023/12/22 09:29:11;;;;;;;4.50;1.00;;;11.60;98.70;;;;;;6265556;28;20094;-85
2023/12/22 09:32:12;;;;;;;4.68;0.98;;;11.60;98.00;;;;;;6256026;28;20071;-85
2023/12/22 09:35:14;;;;;;;2.88;0.70;;;11.60;98.00;;;;;;6255507;28;20049;-86
2023/12/22 09:38:16;;;;;;;3.50;0.82;;;11.70;98.10;;;;;;6272747;28;20049;-85
2023/12/22 09:41:18;;;;;;;3.22;0.80;;;11.60;96.30;;;;;;6256744;28;20076;-84
2023/12/22 09:44:23;;;;;;;2.45;0.70;;;11.60;96.60;;;;;;6271272;28;20500;-84
2023/12/22 09:47:25;;;;;;;3.03;0.68;;;11.70;95.10;;;;;;6255806;28;20045;-80
2023/12/22 09:50:27;;;;;;;4.28;0.95;;;11.70;95.60;;;;;;6258263;28;20105;-78
2023/12/22 09:53:30;;;;;;;5.00;0.75;;;11.70;95.60;;;;;;6276401;28;20045;-83
2023/12/22 09:56:33;;;;;;;2.40;0.60;;;11.80;96.10;;;;;;6271652;28;20052;-81
2023/12/22 09:59:34;;;;;;;4.60;0.70;;;11.70;97.00;;;;;;6265195;28;20634;-82
2023/12/22 10:02:36;;;;;;;3.17;0.82;;;11.60;97.40;;;;;;6263548;28;20595;-84
2023/12/22 10:05:39;;;;;;;3.00;0.70;;;11.60;96.10;;;;;;6252104;28;20053;-82
2023/12/22 10:08:40;;;;;;;5.53;0.80;;;11.70;96.90;;;;;;6251568;28;20049;-82
2023/12/22 10:11:42;;;;;;;4.82;0.65;;;11.70;96.00;;;;;;6280641;28;20044;-82
2023/12/22 10:14:44;;;;;;;3.90;0.80;;;11.70;95.40;;;;;;6269021;28;20497;-84
2023/12/22 10:17:45;;;;;;;3.75;0.75;;;11.80;94.60;;;;;;6255414;28;20049;-83
2023/12/22 10:20:48;;;;;;;4.95;0.80;;;11.90;94.30;;;;;;6262950;28;20526;-83
2023/12/22 10:23:49;;;;;;;6.53;0.95;;;11.90;95.00;;;;;;6270396;28;20055;-84
2023/12/22 10:26:51;;;;;;;4.10;0.80;;;12.00;93.80;;;;;;6250286;28;20040;-83
2023/12/22 10:29:56;;;;;;;4.88;0.90;;;12.10;93.20;;;;;;6266109;28;20404;-83
2023/12/22 10:32:58;;;;;;;5.32;1.27;;;12.20;92.10;;;;;;6251130;28;20048;-83
2023/12/22 10:36:00;;;;;;;3.08;0.75;;;12.10;93.30;;;;;;6253989;28;20369;-82
2023/12/22 10:39:02;;;;;;;4.82;0.98;;;12.10;93.00;;;;;;6265160;28;20052;-88
2023/12/22 10:42:04;;;;;;;5.13;1.10;;;12.00;93.10;;;;;;6282719;28;20599;-83
2023/12/22 10:45:05;;;;;;;3.70;0.80;;;12.00;95.10;;;;;;6249893;28;20060;-82
2023/12/22 10:48:07;;;;;;;3.17;0.95;;;12.00;94.00;;;;;;6250262;28;20056;-82
2023/12/22 10:51:09;;;;;;;3.13;0.80;;;12.10;93.60;;;;;;6268234;28;20060;-83
2023/12/22 10:54:10;;;;;;;3.35;0.90;;;12.10;93.30;;;;;;6250393;28;20492;-82
2023/12/22 10:57:12;;;;;;;4.68;0.85;;;12.10;93.10;;;;;;6250704;28;20049;-82
2023/12/22 11:00:16;;;;;;;6.63;1.17;;;12.10;93.60;;;;;;6265494;28;20056;-81
2023/12/22 11:03:21;;;;;;;4.47;0.88;;;12.10;93.90;;;;;;6250434;28;20531;-82
2023/12/22 11:06:25;;;;;;;5.07;1.33;;;12.00;93.60;;;;;;6268469;28;20235;-81
2023/12/22 11:09:26;;;;;;;5.05;1.27;;;12.00;95.00;;;;;;6268642;28;20049;-81
2023/12/22 11:12:28;;;;;;;6.72;1.45;;;12.00;94.40;;;;;;6267628;28;20053;-81
2023/12/22 11:15:30;;;;;;;6.40;1.35;;;12.10;95.00;;;;;;6267181;28;20056;-81
2023/12/22 11:18:31;;;;;;;9.20;1.50;;;12.10;93.00;;;;;;6225875;28;20056;-82
2023/12/22 11:21:33;;;;;;;7.63;1.63;;;12.10;91.90;;;;;;6266199;28;20065;-82
2023/12/22 11:24:35;;;;;;;7.18;1.48;;;12.10;92.80;;;;;;6250090;28;20053;-83
2023/12/22 11:27:37;;;;;;;6.22;1.30;;;12.20;91.40;;;;;;6249403;28;20084;-83
2023/12/22 11:30:38;;;;;;;5.80;1.20;;;12.20;90.90;;;;;;6265515;28;20412;-81
2023/12/22 11:33:40;;;;;;;4.50;1.10;;;12.20;88.30;;;;;;6243699;28;20057;-82
2023/12/22 11:36:55;;;;;;;5.90;1.40;;;12.30;81.30;;;;;;6243705;28;20057;-83
2023/12/22 11:39:56;;;;;;;6.88;1.10;;;12.30;78.90;;;;;;6267105;28;20084;-82
2023/12/22 11:42:58;;;;;;;5.63;1.42;;;12.50;74.60;;;;;;6264595;28;20068;-82
2023/12/22 11:45:59;;;;;;;9.90;1.30;;;12.50;74.60;;;;;;6237913;28;20068;-85
2023/12/22 11:49:01;;;;;;;5.28;0.93;;;12.60;62.20;;;;;;6273181;28;20060;-83
2023/12/22 11:52:03;;;;;;;4.50;1.10;;;12.50;60.50;;;;;;6255210;28;20045;-82
2023/12/22 11:55:05;;;;;;;5.55;1.10;;;12.60;47.90;;;;;;6271933;28;20548;-78
2023/12/22 11:58:10;;;;;;;4.88;1.55;;;12.60;50.40;;;;;;6266936;28;20428;-82
2023/12/22 12:01:11;;;;;;;3.97;0.70;;;12.60;52.80;;;;;;6257185;28;20110;-85
2023/12/22 12:04:13;;;;;;;5.65;0.93;;;12.60;41.70;;;;;;6291804;28;20214;-84
2023/12/22 12:07:15;;;;;;;3.65;1.20;;;12.70;50.10;;;;;;6255575;28;20048;-84
2023/12/22 12:10:16;;;;;;;4.00;0.90;;;12.70;50.00;;;;;;6271487;28;20125;-87
2023/12/22 12:13:18;;;;;;;4.25;0.80;;;12.70;34.40;;;;;;6276241;28;20495;-84
2023/12/22 12:16:23;;;;;;;3.08;0.77;;;12.70;43.70;;;;;;6274305;28;20083;-83
2023/12/22 12:19:25;;;;;;;7.07;1.20;;;12.70;43.30;;;;;;6263285;28;20605;-83
2023/12/22 12:22:27;;;;;;;3.22;1.05;;;12.70;30.70;;;;;;6283770;28;20080;-87
2023/12/22 12:25:31;;;;;;;4.03;1.20;;;12.70;30.60;;;;;;6263651;28;20595;-83
2023/12/22 12:28:37;;;;;;;4.70;1.10;;;12.70;31.00;;;;;;6269641;28;20059;-84
2023/12/22 12:31:41;;;;;;;5.13;1.50;;;12.60;32.00;;;;;;6258203;28;20095;-85
2023/12/22 12:34:43;;;;;;;7.25;1.50;;;12.60;36.70;;;;;;6268092;28;20127;-83
2023/12/22 12:37:48;;;;;;;5.68;1.38;;;12.70;32.40;;;;;;6266015;28;20051;-86
2023/12/22 12:40:50;;;;;;;5.90;1.33;;;12.70;28.90;;;;;;6270842;28;20135;-85
2023/12/22 12:43:52;;;;;;;9.30;1.90;;;12.70;28.30;;;;;;6280757;28;20512;-82
2023/12/22 12:46:53;;;;;;;4.50;1.05;;;12.70;32.00;;;;;;6278374;28;20052;-81
2023/12/22 12:49:55;;;;;;;7.88;1.70;;;12.70;26.50;;;;;;6281623;28;20512;-84
2023/12/22 12:52:57;;;;;;;3.38;1.20;;;12.60;21.60;;;;;;6270206;28;20372;-83
2023/12/22 12:55:59;;;;;;;6.75;1.67;;;12.60;24.90;;;;;;6269673;28;20144;-85
2023/12/22 12:59:00;;;;;;;6.18;1.52;;;12.60;32.00;;;;;;6265955;28;20750;-82
2023/12/22 13:02:02;;;;;;;6.28;1.90;;;12.50;30.10;;;;;;6270054;28;20080;-82
2023/12/22 13:05:04;;;;;;;7.15;2.08;;;12.40;31.30;;;;;;6278671;28;20045;-81
2023/12/22 13:08:06;;;;;;;5.50;1.48;;;12.40;37.40;;;;;;6253926;28;20060;-83
2023/12/22 13:11:08;;;;;;;8.35;1.52;;;12.40;33.70;;;;;;6273809;28;20048;-82
2023/12/22 13:14:10;;;;;;;7.47;1.40;;;12.40;36.10;;;;;;6269274;28;20079;-83
2023/12/22 13:17:11;;;;;;;5.97;1.80;;;12.30;36.40;;;;;;6270627;28;20135;-82
2023/12/22 13:20:13;;;;;;;5.40;1.52;;;12.40;42.90;;;;;;6274674;28;20054;-83
2023/12/22 13:23:15;;;;;;;7.00;1.70;;;12.40;37.00;;;;;;6271942;28;20492;-84
2023/12/22 13:26:17;;;;;;;4.15;1.35;;;12.40;34.10;;;;;;6273765;28;20045;-84
2023/12/22 13:29:19;;;;;;;4.82;1.35;;;12.50;33.10;;;;;;6248696;28;20052;-84
2023/12/22 13:32:20;;;;;;;5.57;1.40;;;12.50;31.80;;;;;;6271213;28;20068;-85
2023/12/22 13:35:22;;;;;;;9.18;1.40;;;12.40;32.60;;;;;;6252989;28;20140;-82
2023/12/22 13:38:24;;;;;;;4.78;1.20;;;12.40;34.40;;;;;;6257313;28;20058;-87
2023/12/22 13:41:25;;;;;;;6.15;1.73;;;12.40;36.50;;;;;;6271678;28;20052;-84
2023/12/22 13:44:27;;;;;;;5.38;1.27;;;12.50;36.30;;;;;;6269797;28;20049;-84
2023/12/22 13:47:29;;;;;;;7.50;1.77;;;12.50;26.40;;;;;;6254019;28;20053;-84
2023/12/22 13:50:33;;;;;;;8.57;2.50;;;12.50;28.10;;;;;;6272336;28;20059;-84
2023/12/22 13:53:35;;;;;;;7.60;2.33;;;12.60;28.20;;;;;;6251664;28;20139;-82
2023/12/22 13:56:39;;;;;;;5.43;1.70;;;12.50;27.10;;;;;;6252283;28;20111;-83
2023/12/22 13:59:41;;;;;;;6.25;1.50;;;12.50;20.80;;;;;;6266553;28;20041;-84
2023/12/22 14:02:43;;;;;;;7.90;1.55;;;12.50;18.60;;;;;;6257501;28;20049;-84
2023/12/22 14:05:44;;;;;;;7.10;1.65;;;12.50;22.60;;;;;;6254859;28;20126;-83
2023/12/22 14:08:46;;;;;;;8.10;1.50;;;12.50;19.50;;;;;;6279193;28;20182;-84
2023/12/22 14:11:48;;;;;;;8.23;1.75;;;12.50;23.50;;;;;;6288927;28;20048;-83
2023/12/22 14:15:02;;;;;;;8.13;1.33;;;12.50;23.90;;;;;;6265586;28;20053;-84
2023/12/22 14:18:03;;;;;;;7.85;1.70;;;12.50;17.90;;;;;;6251941;28;20040;-84
2023/12/22 14:21:05;;;;;;;7.15;2.28;;;12.50;17.40;;;;;;6275345;28;20063;-87
2023/12/22 14:24:07;;;;;;;9.63;2.25;;;12.50;17.40;;;;;;6264010;28;20045;-86
2023/12/22 14:27:10;;;;;;;7.18;1.80;;;12.50;15.40;;;;;;6261019;28;20045;-86
2023/12/22 14:30:11;;;;;;;9.02;2.88;;;12.60;11.40;;;;;;6281356;28;20060;-83
2023/12/22 14:33:14;;;;;;;9.90;2.42;;;12.50;9.70;;;;;;6266213;28;20381;-83
2023/12/22 14:36:16;;;;;;;6.80;2.05;;;12.60;10.30;;;;;;6287726;28;20056;-83
2023/12/22 14:39:18;;;;;;;7.03;1.90;;;12.50;9.60;;;;;;6265863;28;20052;-83
2023/12/22 14:42:20;;;;;;;8.63;2.50;;;12.50;11.10;;;;;;6264518;28;20060;-82
2023/12/22 14:45:22;;;;;;;7.30;2.80;;;12.60;10.80;;;;;;6264499;28;20067;-87
2023/12/22 14:48:24;;;;;;;8.63;2.13;;;12.60;16.60;;;;;;6261612;28;20572;-83
2023/12/22 14:51:26;;;;;;;10.65;3.40;;;12.50;14.30;;;;;;6256247;28;20138;-84
2023/12/22 14:54:27;;;;;;;5.53;1.90;;;12.40;13.90;;;;;;6256958;28;20052;-84
2023/12/22 14:57:29;;;;;;;8.48;2.20;;;12.40;13.80;;;;;;6256031;28;20421;-84
2023/12/22 15:00:31;;;;;;;10.95;2.90;;;12.30;13.80;;;;;;6252785;28;20056;-84
2023/12/22 15:03:33;;;;;;;7.20;2.60;;;12.30;12.90;;;;;;6253537;28;20139;-84
2023/12/22 15:06:34;;;;;;;8.10;1.67;;;12.40;9.00;;;;;;6251556;28;20053;-84
2023/12/22 15:09:36;;;;;;;6.40;1.90;;;12.40;6.80;;;;;;6269052;28;20052;-84
2023/12/22 15:12:41;;;;;;;9.20;2.60;;;12.40;10.40;;;;;;6251275;28;20521;-84
2023/12/22 15:15:43;;;;;;;7.05;2.35;;;12.40;11.80;;;;;;6250644;28;20045;-82
2023/12/22 15:18:44;;;;;;;7.90;1.75;;;12.40;14.20;;;;;;6226531;28;20060;-83
2023/12/22 15:21:46;;;;;;;7.45;1.70;;;12.30;13.80;;;;;;6273912;28;20052;-82
2023/12/22 15:24:48;;;;;;;7.60;2.20;;;12.30;12.60;;;;;;6256417;28;20068;-84
2023/12/22 15:27:49;;;;;;;11.57;2.15;;;12.20;16.20;;;;;;6256278;28;20413;-84
2023/12/22 15:30:51;;;;;;;9.65;1.95;;;12.20;21.10;;;;;;6254695;28;20057;-82
2023/12/22 15:33:53;;;;;;;6.43;1.60;;;12.10;20.40;;;;;;6248539;28;20060;-82
2023/12/22 15:36:55;;;;;;;5.88;1.02;;;12.10;19.30;;;;;;6263898;28;20096;-84
2023/12/22 15:39:57;;;;;;;6.75;1.55;;;12.00;19.30;;;;;;6254768;28;20053;-82
2023/12/22 15:42:58;;;;;;;6.72;1.52;;;12.00;21.00;;;;;;6272631;28;20056;-83
2023/12/22 15:46:00;;;;;;;9.68;1.63;;;11.90;22.50;;;;;;6255591;28;20061;-84
2023/12/22 15:49:02;;;;;;;7.60;1.60;;;11.90;22.80;;;;;;6253378;28;20045;-85